sensor_id;sensor_type;location;lat;lon;timestamp;temperature;humidity
11079;DHT22;5592;49.234;7.268;2023-10-31T00:01:11;10.40;99.90
11079;DHT22;5592;49.234;7.268;2023-10-31T00:03:37;10.40;99.90
11079;DHT22;5592;49.234;7.268;2023-10-31T00:06:03;10.30;99.90
11079;DHT22;5592;49.234;7.268;2023-10-31T00:08:28;10.30;99.90
11079;DHT22;5592;49.234;7.268;2023-10-31T00:10:54;10.20;99.90
11079;DHT22;5592;49.234;7.268;2023-10-31T00:13:19;10.20;99.90
11079;DHT22;5592;49.234;7.268;2023-10-31T00:15:45;10.20;99.90
11079;DHT22;5592;49.234;7.268;2023-10-31T00:18:11;10.10;99.90
11079;DHT22;5592;49.234;7.268;2023-10-31T00:20:36;10.10;99.90
11079;DHT22;5592;49.234;7.268;2023-10-31T00:23:02;10.20;99.90
11079;DHT22;5592;49.234;7.268;2023-10-31T00:25:27;10.20;99.90
11079;DHT22;5592;49.234;7.268;2023-10-31T00:27:56;10.20;99.90
11079;DHT22;5592;49.234;7.268;2023-10-31T00:30:22;10.20;99.90
11079;DHT22;5592;49.234;7.268;2023-10-31T00:32:47;10.20;99.90
11079;DHT22;5592;49.234;7.268;2023-10-31T00:35:13;10.20;99.90
11079;DHT22;5592;49.234;7.268;2023-10-31T00:37:39;10.20;99.90
11079;DHT22;5592;49.234;7.268;2023-10-31T00:40:08;10.30;99.90
11079;DHT22;5592;49.234;7.268;2023-10-31T00:42:37;10.20;99.90
11079;DHT22;5592;49.234;7.268;2023-10-31T00:45:04;10.20;99.90
11079;DHT22;5592;49.234;7.268;2023-10-31T00:47:29;10.20;99.90
11079;DHT22;5592;49.234;7.268;2023-10-31T00:49:55;10.20;99.90
11079;DHT22;5592;49.234;7.268;2023-10-31T00:52:21;10.10;99.90
11079;DHT22;5592;49.234;7.268;2023-10-31T00:54:47;10.10;99.90
11079;DHT22;5592;49.234;7.268;2023-10-31T00:57:12;10.00;99.90
11079;DHT22;5592;49.234;7.268;2023-10-31T00:59:38;10.00;99.90
11079;DHT22;5592;49.234;7.268;2023-10-31T01:02:04;10.00;99.90
11079;DHT22;5592;49.234;7.268;2023-10-31T01:04:30;10.00;99.90
11079;DHT22;5592;49.234;7.268;2023-10-31T01:06:57;10.00;99.90
11079;DHT22;5592;49.234;7.268;2023-10-31T01:09:24;10.10;99.90
11079;DHT22;5592;49.234;7.268;2023-10-31T01:11:49;10.10;99.90
11079;DHT22;5592;49.234;7.268;2023-10-31T01:14:15;10.10;99.90
11079;DHT22;5592;49.234;7.268;2023-10-31T01:16:41;10.10;99.90
11079;DHT22;5592;49.234;7.268;2023-10-31T01:19:07;10.10;99.90
11079;DHT22;5592;49.234;7.268;2023-10-31T01:21:33;10.10;99.90
11079;DHT22;5592;49.234;7.268;2023-10-31T01:23:59;10.20;99.90
11079;DHT22;5592;49.234;7.268;2023-10-31T01:26:25;10.10;99.90
11079;DHT22;5592;49.234;7.268;2023-10-31T01:28:51;10.20;99.90
11079;DHT22;5592;49.234;7.268;2023-10-31T01:31:17;10.20;99.90
11079;DHT22;5592;49.234;7.268;2023-10-31T01:33:43;10.20;99.90
11079;DHT22;5592;49.234;7.268;2023-10-31T01:36:08;10.20;99.90
11079;DHT22;5592;49.234;7.268;2023-10-31T01:38:36;10.10;99.90
11079;DHT22;5592;49.234;7.268;2023-10-31T01:41:02;10.10;99.90
11079;DHT22;5592;49.234;7.268;2023-10-31T01:43:31;10.10;99.90
11079;DHT22;5592;49.234;7.268;2023-10-31T01:45:57;10.10;99.90
11079;DHT22;5592;49.234;7.268;2023-10-31T01:48:23;10.10;99.90
11079;DHT22;5592;49.234;7.268;2023-10-31T01:50:51;10.00;99.90
11079;DHT22;5592;49.234;7.268;2023-10-31T01:53:17;10.00;99.90
11079;DHT22;5592;49.234;7.268;2023-10-31T01:55:45;10.00;99.90
11079;DHT22;5592;49.234;7.268;2023-10-31T01:58:11;10.10;99.90
11079;DHT22;5592;49.234;7.268;2023-10-31T02:00:40;10.10;99.90
11079;DHT22;5592;49.234;7.268;2023-10-31T02:03:07;10.00;99.90
11079;DHT22;5592;49.234;7.268;2023-10-31T02:05:33;10.00;99.90
11079;DHT22;5592;49.234;7.268;2023-10-31T02:08:00;10.00;99.90
11079;DHT22;5592;49.234;7.268;2023-10-31T02:10:26;10.00;99.90
11079;DHT22;5592;49.234;7.268;2023-10-31T02:12:51;10.00;99.90
11079;DHT22;5592;49.234;7.268;2023-10-31T02:15:17;10.00;99.90
11079;DHT22;5592;49.234;7.268;2023-10-31T02:17:43;10.00;99.90
11079;DHT22;5592;49.234;7.268;2023-10-31T02:20:08;10.00;99.90
11079;DHT22;5592;49.234;7.268;2023-10-31T02:22:34;9.90;99.90
11079;DHT22;5592;49.234;7.268;2023-10-31T02:25:00;9.90;99.90
11079;DHT22;5592;49.234;7.268;2023-10-31T02:27:25;9.80;99.90
11079;DHT22;5592;49.234;7.268;2023-10-31T02:29:51;9.80;99.90
11079;DHT22;5592;49.234;7.268;2023-10-31T02:32:16;9.70;99.90
11079;DHT22;5592;49.234;7.268;2023-10-31T02:34:44;9.80;99.90
11079;DHT22;5592;49.234;7.268;2023-10-31T02:37:10;9.80;99.90
11079;DHT22;5592;49.234;7.268;2023-10-31T02:39:36;9.90;99.90
11079;DHT22;5592;49.234;7.268;2023-10-31T02:42:02;9.90;99.90
11079;DHT22;5592;49.234;7.268;2023-10-31T02:44:28;9.90;99.90
11079;DHT22;5592;49.234;7.268;2023-10-31T02:46:53;9.90;99.90
11079;DHT22;5592;49.234;7.268;2023-10-31T02:49:19;9.90;99.90
11079;DHT22;5592;49.234;7.268;2023-10-31T02:51:44;9.90;99.90
11079;DHT22;5592;49.234;7.268;2023-10-31T02:54:10;9.90;99.90
11079;DHT22;5592;49.234;7.268;2023-10-31T02:56:35;9.90;99.90
11079;DHT22;5592;49.234;7.268;2023-10-31T02:59:01;9.90;99.90
11079;DHT22;5592;49.234;7.268;2023-10-31T03:01:30;9.90;99.90
11079;DHT22;5592;49.234;7.268;2023-10-31T03:03:55;10.00;99.90
11079;DHT22;5592;49.234;7.268;2023-10-31T03:06:21;9.90;99.90
11079;DHT22;5592;49.234;7.268;2023-10-31T03:08:47;9.90;99.90
11079;DHT22;5592;49.234;7.268;2023-10-31T03:11:21;9.90;99.90
11079;DHT22;5592;49.234;7.268;2023-10-31T03:13:48;10.00;99.90
11079;DHT22;5592;49.234;7.268;2023-10-31T03:16:14;9.90;99.90
11079;DHT22;5592;49.234;7.268;2023-10-31T03:18:39;9.90;99.90
11079;DHT22;5592;49.234;7.268;2023-10-31T03:21:05;9.90;99.90
11079;DHT22;5592;49.234;7.268;2023-10-31T03:23:31;9.80;99.90
11079;DHT22;5592;49.234;7.268;2023-10-31T03:25:56;9.80;99.90
11079;DHT22;5592;49.234;7.268;2023-10-31T03:28:22;9.80;99.90
11079;DHT22;5592;49.234;7.268;2023-10-31T03:30:50;9.80;99.90
11079;DHT22;5592;49.234;7.268;2023-10-31T03:33:16;9.80;99.90
11079;DHT22;5592;49.234;7.268;2023-10-31T03:35:43;9.80;99.90
11079;DHT22;5592;49.234;7.268;2023-10-31T03:38:09;9.80;99.90
11079;DHT22;5592;49.234;7.268;2023-10-31T03:40:34;9.80;99.90
11079;DHT22;5592;49.234;7.268;2023-10-31T03:43:00;9.80;99.90
11079;DHT22;5592;49.234;7.268;2023-10-31T03:45:25;9.90;99.90
11079;DHT22;5592;49.234;7.268;2023-10-31T03:47:51;9.80;99.90
11079;DHT22;5592;49.234;7.268;2023-10-31T03:50:17;9.80;99.90
11079;DHT22;5592;49.234;7.268;2023-10-31T03:52:42;9.80;99.90
11079;DHT22;5592;49.234;7.268;2023-10-31T03:55:08;9.90;99.90
11079;DHT22;5592;49.234;7.268;2023-10-31T03:57:34;9.80;99.90
11079;DHT22;5592;49.234;7.268;2023-10-31T03:59:59;9.90;99.90
11079;DHT22;5592;49.234;7.268;2023-10-31T04:02:25;9.90;99.90
11079;DHT22;5592;49.234;7.268;2023-10-31T04:04:51;9.90;99.90
11079;DHT22;5592;49.234;7.268;2023-10-31T04:07:16;9.90;99.90
11079;DHT22;5592;49.234;7.268;2023-10-31T04:09:42;9.90;99.90
11079;DHT22;5592;49.234;7.268;2023-10-31T04:12:08;9.90;99.90
11079;DHT22;5592;49.234;7.268;2023-10-31T04:14:34;9.80;99.90
11079;DHT22;5592;49.234;7.268;2023-10-31T04:17:00;9.80;99.90
11079;DHT22;5592;49.234;7.268;2023-10-31T04:19:25;9.80;99.90
11079;DHT22;5592;49.234;7.268;2023-10-31T04:21:53;9.90;99.90
11079;DHT22;5592;49.234;7.268;2023-10-31T04:24:19;9.90;99.90
11079;DHT22;5592;49.234;7.268;2023-10-31T04:26:45;9.80;99.90
11079;DHT22;5592;49.234;7.268;2023-10-31T04:29:10;9.80;99.90
11079;DHT22;5592;49.234;7.268;2023-10-31T04:31:36;9.80;99.90
11079;DHT22;5592;49.234;7.268;2023-10-31T04:34:02;9.80;99.90
11079;DHT22;5592;49.234;7.268;2023-10-31T04:36:27;9.80;99.90
11079;DHT22;5592;49.234;7.268;2023-10-31T04:38:53;9.80;99.90
11079;DHT22;5592;49.234;7.268;2023-10-31T04:41:18;9.80;99.90
11079;DHT22;5592;49.234;7.268;2023-10-31T04:43:44;9.80;99.90
11079;DHT22;5592;49.234;7.268;2023-10-31T04:46:10;9.80;99.90
11079;DHT22;5592;49.234;7.268;2023-10-31T04:48:35;9.80;99.90
11079;DHT22;5592;49.234;7.268;2023-10-31T04:51:01;9.80;99.90
11079;DHT22;5592;49.234;7.268;2023-10-31T04:53:26;9.90;99.90
11079;DHT22;5592;49.234;7.268;2023-10-31T04:55:52;9.90;99.90
11079;DHT22;5592;49.234;7.268;2023-10-31T04:58:18;9.90;99.90
11079;DHT22;5592;49.234;7.268;2023-10-31T05:00:43;9.90;99.90
11079;DHT22;5592;49.234;7.268;2023-10-31T05:03:10;9.90;99.90
11079;DHT22;5592;49.234;7.268;2023-10-31T05:05:36;9.90;99.90
11079;DHT22;5592;49.234;7.268;2023-10-31T05:08:02;9.90;99.90
11079;DHT22;5592;49.234;7.268;2023-10-31T05:10:29;9.90;99.90
11079;DHT22;5592;49.234;7.268;2023-10-31T05:12:55;9.90;99.90
11079;DHT22;5592;49.234;7.268;2023-10-31T05:15:20;9.80;99.90
11079;DHT22;5592;49.234;7.268;2023-10-31T05:17:46;9.90;99.90
11079;DHT22;5592;49.234;7.268;2023-10-31T05:20:12;9.80;99.90
11079;DHT22;5592;49.234;7.268;2023-10-31T05:22:40;9.80;99.90
11079;DHT22;5592;49.234;7.268;2023-10-31T05:25:06;9.80;99.90
11079;DHT22;5592;49.234;7.268;2023-10-31T05:27:32;9.80;99.90
11079;DHT22;5592;49.234;7.268;2023-10-31T05:29:58;9.90;99.90
11079;DHT22;5592;49.234;7.268;2023-10-31T05:32:23;9.90;99.90
11079;DHT22;5592;49.234;7.268;2023-10-31T05:34:49;9.80;99.90
11079;DHT22;5592;49.234;7.268;2023-10-31T05:37:14;9.90;99.90
11079;DHT22;5592;49.234;7.268;2023-10-31T05:39:40;9.80;99.90
11079;DHT22;5592;49.234;7.268;2023-10-31T05:42:06;9.80;99.90
11079;DHT22;5592;49.234;7.268;2023-10-31T05:44:33;9.80;99.90
11079;DHT22;5592;49.234;7.268;2023-10-31T05:46:59;9.80;99.90
11079;DHT22;5592;49.234;7.268;2023-10-31T05:49:24;9.80;99.90
11079;DHT22;5592;49.234;7.268;2023-10-31T05:51:53;9.80;99.90
11079;DHT22;5592;49.234;7.268;2023-10-31T05:54:19;9.70;99.90
11079;DHT22;5592;49.234;7.268;2023-10-31T05:56:44;9.80;99.90
11079;DHT22;5592;49.234;7.268;2023-10-31T05:59:11;9.80;99.90
11079;DHT22;5592;49.234;7.268;2023-10-31T06:01:37;9.70;99.90
11079;DHT22;5592;49.234;7.268;2023-10-31T06:04:03;9.70;99.90
11079;DHT22;5592;49.234;7.268;2023-10-31T06:06:33;9.70;99.90
11079;DHT22;5592;49.234;7.268;2023-10-31T06:08:59;9.70;99.90
11079;DHT22;5592;49.234;7.268;2023-10-31T06:11:25;9.70;99.90
11079;DHT22;5592;49.234;7.268;2023-10-31T06:13:52;9.70;99.90
11079;DHT22;5592;49.234;7.268;2023-10-31T06:16:18;9.70;99.90
11079;DHT22;5592;49.234;7.268;2023-10-31T06:18:43;9.80;99.90
11079;DHT22;5592;49.234;7.268;2023-10-31T06:21:09;9.80;99.90
11079;DHT22;5592;49.234;7.268;2023-10-31T06:23:39;9.80;99.90
11079;DHT22;5592;49.234;7.268;2023-10-31T06:26:04;9.80;99.90
11079;DHT22;5592;49.234;7.268;2023-10-31T06:28:30;9.80;99.90
11079;DHT22;5592;49.234;7.268;2023-10-31T06:31:00;9.80;99.90
11079;DHT22;5592;49.234;7.268;2023-10-31T06:33:27;9.80;99.90
11079;DHT22;5592;49.234;7.268;2023-10-31T06:35:53;9.80;99.90
11079;DHT22;5592;49.234;7.268;2023-10-31T06:38:19;9.70;99.90
11079;DHT22;5592;49.234;7.268;2023-10-31T06:40:47;9.70;99.90
11079;DHT22;5592;49.234;7.268;2023-10-31T06:43:12;9.70;99.90
11079;DHT22;5592;49.234;7.268;2023-10-31T06:45:38;9.70;99.90
11079;DHT22;5592;49.234;7.268;2023-10-31T06:48:04;9.70;99.90
11079;DHT22;5592;49.234;7.268;2023-10-31T06:50:32;9.70;99.90
11079;DHT22;5592;49.234;7.268;2023-10-31T06:52:58;9.80;99.90
11079;DHT22;5592;49.234;7.268;2023-10-31T06:55:27;9.80;99.90
11079;DHT22;5592;49.234;7.268;2023-10-31T06:57:52;9.80;99.90
11079;DHT22;5592;49.234;7.268;2023-10-31T07:00:18;9.80;99.90
11079;DHT22;5592;49.234;7.268;2023-10-31T07:02:43;9.90;99.90
11079;DHT22;5592;49.234;7.268;2023-10-31T07:05:11;9.90;99.90
11079;DHT22;5592;49.234;7.268;2023-10-31T07:07:38;9.90;99.90
11079;DHT22;5592;49.234;7.268;2023-10-31T07:10:04;9.90;99.90
11079;DHT22;5592;49.234;7.268;2023-10-31T07:12:30;9.90;99.90
11079;DHT22;5592;49.234;7.268;2023-10-31T07:14:57;9.90;99.90
11079;DHT22;5592;49.234;7.268;2023-10-31T07:17:24;10.00;99.90
11079;DHT22;5592;49.234;7.268;2023-10-31T07:19:50;10.00;99.90
11079;DHT22;5592;49.234;7.268;2023-10-31T07:22:16;10.10;99.90
11079;DHT22;5592;49.234;7.268;2023-10-31T07:24:41;10.10;99.90
11079;DHT22;5592;49.234;7.268;2023-10-31T07:27:08;10.20;99.90
11079;DHT22;5592;49.234;7.268;2023-10-31T07:29:34;10.20;99.90
11079;DHT22;5592;49.234;7.268;2023-10-31T07:31:59;10.20;99.90
11079;DHT22;5592;49.234;7.268;2023-10-31T07:34:25;10.20;99.90
11079;DHT22;5592;49.234;7.268;2023-10-31T07:36:51;10.20;99.90
11079;DHT22;5592;49.234;7.268;2023-10-31T07:39:16;10.20;99.90
11079;DHT22;5592;49.234;7.268;2023-10-31T07:41:43;10.30;99.90
11079;DHT22;5592;49.234;7.268;2023-10-31T07:44:11;10.40;99.90
11079;DHT22;5592;49.234;7.268;2023-10-31T07:46:37;10.40;99.90
11079;DHT22;5592;49.234;7.268;2023-10-31T07:49:04;10.50;99.90
11079;DHT22;5592;49.234;7.268;2023-10-31T07:51:31;10.60;99.90
11079;DHT22;5592;49.234;7.268;2023-10-31T07:53:57;10.70;99.90
11079;DHT22;5592;49.234;7.268;2023-10-31T07:56:23;10.90;99.90
11079;DHT22;5592;49.234;7.268;2023-10-31T07:58:51;11.00;99.90
11079;DHT22;5592;49.234;7.268;2023-10-31T08:01:20;11.30;99.90
11079;DHT22;5592;49.234;7.268;2023-10-31T08:03:47;11.50;99.90
11079;DHT22;5592;49.234;7.268;2023-10-31T08:06:13;12.10;99.90
11079;DHT22;5592;49.234;7.268;2023-10-31T08:08:39;12.50;99.90
11079;DHT22;5592;49.234;7.268;2023-10-31T08:11:09;12.70;99.90
11079;DHT22;5592;49.234;7.268;2023-10-31T08:13:38;13.00;99.90
11079;DHT22;5592;49.234;7.268;2023-10-31T08:16:05;13.40;99.90
11079;DHT22;5592;49.234;7.268;2023-10-31T08:18:31;13.60;99.90
11079;DHT22;5592;49.234;7.268;2023-10-31T08:20:57;13.80;99.90
11079;DHT22;5592;49.234;7.268;2023-10-31T08:23:23;13.90;99.90
11079;DHT22;5592;49.234;7.268;2023-10-31T08:25:49;13.90;99.90
11079;DHT22;5592;49.234;7.268;2023-10-31T08:28:16;13.80;99.90
11079;DHT22;5592;49.234;7.268;2023-10-31T08:30:43;14.00;99.90
11079;DHT22;5592;49.234;7.268;2023-10-31T08:33:09;14.10;99.90
11079;DHT22;5592;49.234;7.268;2023-10-31T08:35:34;13.80;99.90
11079;DHT22;5592;49.234;7.268;2023-10-31T08:38:01;13.60;99.90
11079;DHT22;5592;49.234;7.268;2023-10-31T08:40:27;13.50;99.90
11079;DHT22;5592;49.234;7.268;2023-10-31T08:42:53;13.50;99.90
11079;DHT22;5592;49.234;7.268;2023-10-31T08:45:20;13.40;99.90
11079;DHT22;5592;49.234;7.268;2023-10-31T08:47:45;13.10;99.90
11079;DHT22;5592;49.234;7.268;2023-10-31T08:50:11;13.00;99.90
11079;DHT22;5592;49.234;7.268;2023-10-31T08:52:37;13.20;99.90
11079;DHT22;5592;49.234;7.268;2023-10-31T08:55:03;13.00;99.90
11079;DHT22;5592;49.234;7.268;2023-10-31T08:57:29;12.90;99.90
11079;DHT22;5592;49.234;7.268;2023-10-31T08:59:55;12.70;99.90
11079;DHT22;5592;49.234;7.268;2023-10-31T09:02:22;12.60;99.90
11079;DHT22;5592;49.234;7.268;2023-10-31T09:04:47;12.60;99.90
11079;DHT22;5592;49.234;7.268;2023-10-31T09:07:15;12.50;99.90
11079;DHT22;5592;49.234;7.268;2023-10-31T09:09:43;12.40;99.90
11079;DHT22;5592;49.234;7.268;2023-10-31T09:12:09;12.20;99.90
11079;DHT22;5592;49.234;7.268;2023-10-31T09:14:35;12.10;99.90
11079;DHT22;5592;49.234;7.268;2023-10-31T09:17:02;12.10;99.90
11079;DHT22;5592;49.234;7.268;2023-10-31T09:19:28;12.20;99.90
11079;DHT22;5592;49.234;7.268;2023-10-31T09:21:55;12.40;99.90
11079;DHT22;5592;49.234;7.268;2023-10-31T09:24:21;12.80;99.90
11079;DHT22;5592;49.234;7.268;2023-10-31T09:26:49;12.90;99.90
11079;DHT22;5592;49.234;7.268;2023-10-31T09:29:14;12.80;99.90
11079;DHT22;5592;49.234;7.268;2023-10-31T09:31:40;12.80;99.90
11079;DHT22;5592;49.234;7.268;2023-10-31T09:34:06;12.70;99.90
11079;DHT22;5592;49.234;7.268;2023-10-31T09:36:33;12.70;99.90
11079;DHT22;5592;49.234;7.268;2023-10-31T09:39:00;12.90;99.90
11079;DHT22;5592;49.234;7.268;2023-10-31T09:41:26;13.10;99.90
11079;DHT22;5592;49.234;7.268;2023-10-31T09:43:53;13.10;99.90
11079;DHT22;5592;49.234;7.268;2023-10-31T09:46:19;13.30;99.90
11079;DHT22;5592;49.234;7.268;2023-10-31T09:48:44;13.30;99.90
11079;DHT22;5592;49.234;7.268;2023-10-31T09:51:10;13.40;99.90
11079;DHT22;5592;49.234;7.268;2023-10-31T09:53:44;13.60;99.90
11079;DHT22;5592;49.234;7.268;2023-10-31T09:56:10;13.70;99.90
11079;DHT22;5592;49.234;7.268;2023-10-31T09:58:36;14.10;99.90
11079;DHT22;5592;49.234;7.268;2023-10-31T10:01:02;14.50;99.90
11079;DHT22;5592;49.234;7.268;2023-10-31T10:03:29;14.60;99.90
11079;DHT22;5592;49.234;7.268;2023-10-31T10:05:55;14.50;99.90
11079;DHT22;5592;49.234;7.268;2023-10-31T10:08:22;14.20;99.90
11079;DHT22;5592;49.234;7.268;2023-10-31T10:10:49;14.10;99.90
11079;DHT22;5592;49.234;7.268;2023-10-31T10:13:19;14.40;99.90
11079;DHT22;5592;49.234;7.268;2023-10-31T10:15:50;14.40;99.90
11079;DHT22;5592;49.234;7.268;2023-10-31T10:18:28;14.70;99.90
11079;DHT22;5592;49.234;7.268;2023-10-31T10:20:56;14.90;99.90
11079;DHT22;5592;49.234;7.268;2023-10-31T10:23:23;15.10;99.90
11079;DHT22;5592;49.234;7.268;2023-10-31T10:25:51;14.90;99.90
11079;DHT22;5592;49.234;7.268;2023-10-31T10:28:17;14.70;99.90
11079;DHT22;5592;49.234;7.268;2023-10-31T10:30:46;15.20;99.90
11079;DHT22;5592;49.234;7.268;2023-10-31T10:33:12;15.90;99.90
11079;DHT22;5592;49.234;7.268;2023-10-31T10:35:38;16.20;99.90
11079;DHT22;5592;49.234;7.268;2023-10-31T10:38:16;16.00;99.90
11079;DHT22;5592;49.234;7.268;2023-10-31T10:40:44;15.30;99.90
11079;DHT22;5592;49.234;7.268;2023-10-31T10:43:22;14.70;99.90
11079;DHT22;5592;49.234;7.268;2023-10-31T10:45:53;14.40;99.90
11079;DHT22;5592;49.234;7.268;2023-10-31T10:48:21;14.20;99.90
11079;DHT22;5592;49.234;7.268;2023-10-31T10:50:58;14.00;99.90
11079;DHT22;5592;49.234;7.268;2023-10-31T10:53:27;14.10;99.90
11079;DHT22;5592;49.234;7.268;2023-10-31T10:56:00;14.10;99.90
11079;DHT22;5592;49.234;7.268;2023-10-31T10:58:39;14.20;99.90
11079;DHT22;5592;49.234;7.268;2023-10-31T11:01:07;14.30;99.90
11079;DHT22;5592;49.234;7.268;2023-10-31T11:03:34;14.30;99.90
11079;DHT22;5592;49.234;7.268;2023-10-31T11:05:59;14.00;99.90
11079;DHT22;5592;49.234;7.268;2023-10-31T11:08:26;13.70;99.90
11079;DHT22;5592;49.234;7.268;2023-10-31T11:10:53;13.40;99.90
11079;DHT22;5592;49.234;7.268;2023-10-31T11:13:23;13.30;99.90
11079;DHT22;5592;49.234;7.268;2023-10-31T11:15:54;13.10;99.90
11079;DHT22;5592;49.234;7.268;2023-10-31T11:18:22;13.10;99.90
11079;DHT22;5592;49.234;7.268;2023-10-31T11:20:48;13.10;99.90
11079;DHT22;5592;49.234;7.268;2023-10-31T11:23:16;13.30;99.90
11079;DHT22;5592;49.234;7.268;2023-10-31T11:25:44;13.50;99.90
11079;DHT22;5592;49.234;7.268;2023-10-31T11:28:15;13.60;99.90
11079;DHT22;5592;49.234;7.268;2023-10-31T11:30:41;13.80;99.90
11079;DHT22;5592;49.234;7.268;2023-10-31T11:33:13;14.30;99.90
11079;DHT22;5592;49.234;7.268;2023-10-31T11:35:39;14.60;99.90
11079;DHT22;5592;49.234;7.268;2023-10-31T11:38:07;14.80;99.90
11079;DHT22;5592;49.234;7.268;2023-10-31T11:40:35;14.80;99.90
11079;DHT22;5592;49.234;7.268;2023-10-31T11:43:07;14.80;99.90
11079;DHT22;5592;49.234;7.268;2023-10-31T11:45:42;14.70;99.90
11079;DHT22;5592;49.234;7.268;2023-10-31T11:48:09;14.70;99.90
11079;DHT22;5592;49.234;7.268;2023-10-31T11:50:38;14.80;99.90
11079;DHT22;5592;49.234;7.268;2023-10-31T11:55:48;14.50;99.90
11079;DHT22;5592;49.234;7.268;2023-10-31T11:58:24;14.20;99.90
11079;DHT22;5592;49.234;7.268;2023-10-31T12:00:53;13.90;99.90
11079;DHT22;5592;49.234;7.268;2023-10-31T12:03:25;13.90;99.90
11079;DHT22;5592;49.234;7.268;2023-10-31T12:05:57;13.70;99.90
11079;DHT22;5592;49.234;7.268;2023-10-31T12:08:29;13.80;99.90
11079;DHT22;5592;49.234;7.268;2023-10-31T12:11:12;13.90;99.90
11079;DHT22;5592;49.234;7.268;2023-10-31T12:13:59;14.00;99.90
11079;DHT22;5592;49.234;7.268;2023-10-31T12:16:28;14.10;99.90
11079;DHT22;5592;49.234;7.268;2023-10-31T12:18:55;14.30;99.90
11079;DHT22;5592;49.234;7.268;2023-10-31T12:21:41;14.30;99.90
11079;DHT22;5592;49.234;7.268;2023-10-31T12:24:10;14.20;99.90
11079;DHT22;5592;49.234;7.268;2023-10-31T12:26:36;13.90;99.90
11079;DHT22;5592;49.234;7.268;2023-10-31T12:31:51;14.10;99.90
11079;DHT22;5592;49.234;7.268;2023-10-31T12:34:22;14.20;99.90
11079;DHT22;5592;49.234;7.268;2023-10-31T12:36:50;14.40;99.90
11079;DHT22;5592;49.234;7.268;2023-10-31T12:39:18;14.40;99.90
11079;DHT22;5592;49.234;7.268;2023-10-31T12:41:47;14.50;99.90
11079;DHT22;5592;49.234;7.268;2023-10-31T12:44:16;14.50;99.90
11079;DHT22;5592;49.234;7.268;2023-10-31T12:46:43;14.30;99.90
11079;DHT22;5592;49.234;7.268;2023-10-31T12:49:12;14.10;99.90
11079;DHT22;5592;49.234;7.268;2023-10-31T12:52:03;14.10;99.90
11079;DHT22;5592;49.234;7.268;2023-10-31T12:54:34;14.10;99.90
11079;DHT22;5592;49.234;7.268;2023-10-31T12:57:01;14.10;99.90
11079;DHT22;5592;49.234;7.268;2023-10-31T12:59:28;14.00;99.90
11079;DHT22;5592;49.234;7.268;2023-10-31T13:01:54;13.70;99.90
11079;DHT22;5592;49.234;7.268;2023-10-31T13:04:33;13.60;99.90
11079;DHT22;5592;49.234;7.268;2023-10-31T13:07:04;13.50;99.90
11079;DHT22;5592;49.234;7.268;2023-10-31T13:09:31;13.50;99.90
11079;DHT22;5592;49.234;7.268;2023-10-31T13:12:01;13.60;99.90
11079;DHT22;5592;49.234;7.268;2023-10-31T13:14:33;13.90;99.90
11079;DHT22;5592;49.234;7.268;2023-10-31T13:16:59;14.40;99.90
11079;DHT22;5592;49.234;7.268;2023-10-31T13:19:27;14.70;99.90
11079;DHT22;5592;49.234;7.268;2023-10-31T13:21:53;15.10;99.90
11079;DHT22;5592;49.234;7.268;2023-10-31T13:24:19;15.20;99.90
11079;DHT22;5592;49.234;7.268;2023-10-31T13:26:49;15.10;99.90
11079;DHT22;5592;49.234;7.268;2023-10-31T13:29:18;14.80;99.90
11079;DHT22;5592;49.234;7.268;2023-10-31T13:31:44;14.70;99.90
11079;DHT22;5592;49.234;7.268;2023-10-31T13:34:13;14.50;99.90
11079;DHT22;5592;49.234;7.268;2023-10-31T13:36:40;14.50;99.90
11079;DHT22;5592;49.234;7.268;2023-10-31T13:39:08;14.40;99.90
11079;DHT22;5592;49.234;7.268;2023-10-31T13:41:34;14.20;99.90
11079;DHT22;5592;49.234;7.268;2023-10-31T13:44:00;14.00;99.90
11079;DHT22;5592;49.234;7.268;2023-10-31T13:46:29;13.90;99.90
11079;DHT22;5592;49.234;7.268;2023-10-31T13:48:54;13.70;99.90
11079;DHT22;5592;49.234;7.268;2023-10-31T13:51:20;13.60;99.90
11079;DHT22;5592;49.234;7.268;2023-10-31T13:53:45;13.50;99.90
11079;DHT22;5592;49.234;7.268;2023-10-31T13:56:11;13.30;99.90
11079;DHT22;5592;49.234;7.268;2023-10-31T13:58:38;13.10;99.90
11079;DHT22;5592;49.234;7.268;2023-10-31T14:01:04;13.10;99.90
11079;DHT22;5592;49.234;7.268;2023-10-31T14:03:29;13.00;99.90
11079;DHT22;5592;49.234;7.268;2023-10-31T14:05:55;13.10;99.90
11079;DHT22;5592;49.234;7.268;2023-10-31T14:08:20;13.10;99.90
11079;DHT22;5592;49.234;7.268;2023-10-31T14:10:48;13.00;99.90
11079;DHT22;5592;49.234;7.268;2023-10-31T14:13:13;13.00;99.90
11079;DHT22;5592;49.234;7.268;2023-10-31T14:15:41;13.10;99.90
11079;DHT22;5592;49.234;7.268;2023-10-31T14:18:07;13.00;99.90
11079;DHT22;5592;49.234;7.268;2023-10-31T14:20:34;13.10;99.90
11079;DHT22;5592;49.234;7.268;2023-10-31T14:23:00;13.10;99.90
11079;DHT22;5592;49.234;7.268;2023-10-31T14:25:26;13.10;99.90
11079;DHT22;5592;49.234;7.268;2023-10-31T14:27:52;13.10;99.90
11079;DHT22;5592;49.234;7.268;2023-10-31T14:30:17;13.00;99.90
11079;DHT22;5592;49.234;7.268;2023-10-31T14:32:43;12.90;99.90
11079;DHT22;5592;49.234;7.268;2023-10-31T14:35:10;12.80;99.90
11079;DHT22;5592;49.234;7.268;2023-10-31T14:37:36;12.80;99.90
11079;DHT22;5592;49.234;7.268;2023-10-31T14:40:02;12.80;99.90
11079;DHT22;5592;49.234;7.268;2023-10-31T14:42:29;12.70;99.90
11079;DHT22;5592;49.234;7.268;2023-10-31T14:44:55;12.60;99.90
11079;DHT22;5592;49.234;7.268;2023-10-31T14:47:22;12.50;99.90
11079;DHT22;5592;49.234;7.268;2023-10-31T14:49:48;12.40;99.90
11079;DHT22;5592;49.234;7.268;2023-10-31T14:52:14;12.30;99.90
11079;DHT22;5592;49.234;7.268;2023-10-31T14:54:42;12.30;99.90
11079;DHT22;5592;49.234;7.268;2023-10-31T14:57:08;12.20;99.90
11079;DHT22;5592;49.234;7.268;2023-10-31T14:59:33;12.30;99.90
11079;DHT22;5592;49.234;7.268;2023-10-31T15:01:59;12.30;99.90
11079;DHT22;5592;49.234;7.268;2023-10-31T15:04:25;12.40;99.90
11079;DHT22;5592;49.234;7.268;2023-10-31T15:06:51;12.50;99.90
11079;DHT22;5592;49.234;7.268;2023-10-31T15:09:16;12.50;99.90
11079;DHT22;5592;49.234;7.268;2023-10-31T15:11:45;12.50;99.90
11079;DHT22;5592;49.234;7.268;2023-10-31T15:14:10;12.50;99.90
11079;DHT22;5592;49.234;7.268;2023-10-31T15:16:36;12.50;99.90
11079;DHT22;5592;49.234;7.268;2023-10-31T15:19:05;12.50;99.90
11079;DHT22;5592;49.234;7.268;2023-10-31T15:21:35;12.50;99.90
11079;DHT22;5592;49.234;7.268;2023-10-31T15:24:02;12.50;99.90
11079;DHT22;5592;49.234;7.268;2023-10-31T15:26:33;12.50;99.90
11079;DHT22;5592;49.234;7.268;2023-10-31T15:28:59;12.50;99.90
11079;DHT22;5592;49.234;7.268;2023-10-31T15:31:24;12.40;99.90
11079;DHT22;5592;49.234;7.268;2023-10-31T15:33:50;12.40;99.90
11079;DHT22;5592;49.234;7.268;2023-10-31T15:36:15;12.30;99.90
11079;DHT22;5592;49.234;7.268;2023-10-31T15:38:41;12.30;99.90
11079;DHT22;5592;49.234;7.268;2023-10-31T15:41:07;12.20;99.90
11079;DHT22;5592;49.234;7.268;2023-10-31T15:43:33;12.10;99.90
11079;DHT22;5592;49.234;7.268;2023-10-31T15:45:59;12.10;99.90
11079;DHT22;5592;49.234;7.268;2023-10-31T15:48:28;12.00;99.90
11079;DHT22;5592;49.234;7.268;2023-10-31T15:50:53;11.90;99.90
11079;DHT22;5592;49.234;7.268;2023-10-31T15:53:19;11.80;99.90